Lake Taupo — D5EZ7 — position and weather

sailwx.info

Track history (hours):
 
Tides and Currents Weather Stations Pressure Air Temp Water Temp Dewpoint Dewpoint Depression Visibility Wind Speed Wind Dir Waves Ship Positions

Lake Taupo

Last reported at 2018-Jul-12 11:07 UTC. Time now 2018-Jul-21 07:59 UTC.
Position N 34°49' E 139°44'.
Warning: this ship's position is 8 days out of date.

Length 182 m; draft 9.1 m.

Type: Cargo ship. MMSI: 636016205.

Date/timePositionNaut miles runAvg speedWind from/ knotsBaromVisibWave heightAir tempDewpointWater temp
2018-Jul-12 11:07N 34°49' E 139°44'220.4
2018-Jul-12 11:00N 34°51' E 139°43'918.9
2018-Jul-12 10:30N 34°60' E 139°40'816.5
2018-Jul-12 10:01N 35°07' E 139°44'612.4
2018-Jul-12 09:30N 35°13' E 139°46'612.3
2018-Jul-12 09:00N 35°19' E 139°43'612.7
2018-Jul-12 08:30N 35°25' E 139°43'3 5.5
2018-Jul-12 08:00N 35°28' E 139°42'0 0.6
2018-Jul-12 07:29N 35°28' E 139°41'0 0.0
2018-Jul-12 06:59N 35°28' E 139°41'0 0.0
2018-Jul-12 06:29N 35°28' E 139°41'0 0.0
2018-Jul-12 05:59N 35°28' E 139°41'0 0.0
2018-Jul-12 05:29N 35°28' E 139°41'0 0.0
2018-Jul-12 04:59N 35°28' E 139°41'0 0.0
2018-Jul-12 04:29N 35°28' E 139°41'0 0.0
2018-Jul-12 03:59N 35°28' E 139°41'0 0.0
2018-Jul-12 03:29N 35°28' E 139°41'0 0.1
2018-Jul-12 02:59N 35°28' E 139°41'0 0.1
2018-Jul-12 02:29N 35°28' E 139°41'0 0.0
2018-Jul-12 01:59N 35°28' E 139°41'0 0.0
2018-Jul-12 01:29N 35°28' E 139°41'0 0.0
2018-Jul-12 00:56N 35°28' E 139°41'0 0.0
2018-Jul-12 00:29N 35°28' E 139°41'0 0.0
2018-Jul-11 23:59N 35°28' E 139°41'0 0.0
2018-Jul-11 23:29N 35°28' E 139°41'0 0.0
2018-Jul-11 22:59N 35°28' E 139°41'0 0.1
2018-Jul-11 22:29N 35°28' E 139°41'1 1.3
2018-Jul-11 22:00N 35°28' E 139°42'3 6.4
2018-Jul-11 21:30N 35°26' E 139°45'510.3
2018-Jul-11 21:00N 35°21' E 139°45'611.5
2018-Jul-11 20:30N 35°15' E 139°47'611.8
2018-Jul-11 20:00N 35°09' E 139°47'4 8.2
2018-Jul-11 19:30N 35°05' E 139°45'4 8.9
2018-Jul-11 19:00N 35°01' E 139°43'611.4
2018-Jul-11 18:30N 34°56' E 139°41'510.4
2018-Jul-11 17:59N 34°51' E 139°39'610.1
2018-Jul-11 17:24N 34°46' E 139°35'615.0
2018-Jul-11 16:59N 34°40' E 139°32'226 7.7
2018-Jul-10 11:39N 33°38' E 135°10'317.5
2018-Jul-10 11:29N 33°41' E 135°07'1117.2
2018-Jul-10 10:51N 33°49' E 134°59'616.6
2018-Jul-10 10:30N 33°55' E 134°58'917.5
2018-Jul-10 10:00N 34°03' E 134°58'816.8
2018-Jul-10 09:30N 34°12' E 134°59'510.1
2018-Jul-10 09:00N 34°17' E 134°59'612.4
2018-Jul-10 08:31N 34°23' E 135°01'816.5
2018-Jul-10 08:01N 34°27' E 135°09'816.8
2018-Jul-10 07:31N 34°32' E 135°18'5 9.6
2018-Jul-10 07:00N 34°32' E 135°24'0 0.2
2018-Jul-10 06:26N 34°32' E 135°24'0 0.0
2018-Jul-10 05:44N 34°32' E 135°24'0 0.0
2018-Jul-10 05:20N 34°32' E 135°24'0 0.0
2018-Jul-10 04:47N 34°32' E 135°24'0 0.0
2018-Jul-10 04:29N 34°32' E 135°24'0 0.0
2018-Jul-10 03:56N 34°32' E 135°24'0 0.0
2018-Jul-10 03:29N 34°32' E 135°24'0 0.0
2018-Jul-10 02:56N 34°32' E 135°24'0 0.0
2018-Jul-10 02:26N 34°32' E 135°24'0 0.0
2018-Jul-10 01:56N 34°32' E 135°24'0 0.0
2018-Jul-10 01:14N 34°32' E 135°24'0 0.0
2018-Jul-10 00:53N 34°32' E 135°24'0 0.0
2018-Jul-10 00:23N 34°32' E 135°24'0 0.0
2018-Jul-09 22:47N 34°32' E 135°24'0 0.2
2018-Jul-09 22:30N 34°32' E 135°24'2 4.3
2018-Jul-09 22:00N 34°33' E 135°22'5 9.2
2018-Jul-09 21:30N 34°31' E 135°17'611.5
2018-Jul-09 21:00N 34°28' E 135°11'815.1
2018-Jul-09 20:30N 34°23' E 135°04'714.9
2018-Jul-09 20:00N 34°17' E 134°59'713.3
2018-Jul-09 19:30N 34°10' E 134°60'612.6
2018-Jul-09 19:00N 34°04' E 134°59'4 8.2
2018-Jul-09 18:30N 33°60' E 134°58'5 9.2
2018-Jul-09 18:00N 33°55' E 134°57'5 9.7
2018-Jul-09 17:30N 33°51' E 134°56'713.2
2018-Jul-09 17:01N 33°45' E 134°51'1115.1
2018-Jul-09 16:17N 33°37' E 134°43'  
Track history (hours):
 
Tides and Currents Weather Stations Pressure Air Temp Water Temp Dewpoint Dewpoint Depression Visibility Wind Speed Wind Dir Waves Ship Positions

Lake Taupo

Last reported at 2018-Jul-12 11:07 UTC. Time now 2018-Jul-21 07:59 UTC.
Position N 34°49' E 139°44'.
Warning: this ship's position is 8 days out of date.

Length 182 m; draft 9.1 m.

Type: Cargo ship. MMSI: 636016205.

Date/timePositionNaut miles runAvg speedWind from/ knotsBaromVisibWave heightAir tempDewpointWater temp
2018-Jul-12 11:07N 34°49' E 139°44'220.4
2018-Jul-12 11:00N 34°51' E 139°43'918.9
2018-Jul-12 10:30N 34°60' E 139°40'816.5
2018-Jul-12 10:01N 35°07' E 139°44'612.4
2018-Jul-12 09:30N 35°13' E 139°46'612.3
2018-Jul-12 09:00N 35°19' E 139°43'612.7
2018-Jul-12 08:30N 35°25' E 139°43'3 5.5
2018-Jul-12 08:00N 35°28' E 139°42'0 0.6
2018-Jul-12 07:29N 35°28' E 139°41'0 0.0
2018-Jul-12 06:59N 35°28' E 139°41'0 0.0
2018-Jul-12 06:29N 35°28' E 139°41'0 0.0
2018-Jul-12 05:59N 35°28' E 139°41'0 0.0
2018-Jul-12 05:29N 35°28' E 139°41'0 0.0
2018-Jul-12 04:59N 35°28' E 139°41'0 0.0
2018-Jul-12 04:29N 35°28' E 139°41'0 0.0
2018-Jul-12 03:59N 35°28' E 139°41'0 0.0
2018-Jul-12 03:29N 35°28' E 139°41'0 0.1
2018-Jul-12 02:59N 35°28' E 139°41'0 0.1
2018-Jul-12 02:29N 35°28' E 139°41'0 0.0
2018-Jul-12 01:59N 35°28' E 139°41'0 0.0
2018-Jul-12 01:29N 35°28' E 139°41'0 0.0
2018-Jul-12 00:56N 35°28' E 139°41'0 0.0
2018-Jul-12 00:29N 35°28' E 139°41'0 0.0
2018-Jul-11 23:59N 35°28' E 139°41'0 0.0
2018-Jul-11 23:29N 35°28' E 139°41'0 0.0
2018-Jul-11 22:59N 35°28' E 139°41'0 0.1
2018-Jul-11 22:29N 35°28' E 139°41'1 1.3
2018-Jul-11 22:00N 35°28' E 139°42'3 6.4
2018-Jul-11 21:30N 35°26' E 139°45'510.3
2018-Jul-11 21:00N 35°21' E 139°45'611.5
2018-Jul-11 20:30N 35°15' E 139°47'611.8
2018-Jul-11 20:00N 35°09' E 139°47'4 8.2
2018-Jul-11 19:30N 35°05' E 139°45'4 8.9
2018-Jul-11 19:00N 35°01' E 139°43'611.4
2018-Jul-11 18:30N 34°56' E 139°41'510.4
2018-Jul-11 17:59N 34°51' E 139°39'610.1
2018-Jul-11 17:24N 34°46' E 139°35'615.0
2018-Jul-11 16:59N 34°40' E 139°32'226 7.7
2018-Jul-10 11:39N 33°38' E 135°10'317.5
2018-Jul-10 11:29N 33°41' E 135°07'1117.2
2018-Jul-10 10:51N 33°49' E 134°59'616.6
2018-Jul-10 10:30N 33°55' E 134°58'917.5
2018-Jul-10 10:00N 34°03' E 134°58'816.8
2018-Jul-10 09:30N 34°12' E 134°59'510.1
2018-Jul-10 09:00N 34°17' E 134°59'612.4
2018-Jul-10 08:31N 34°23' E 135°01'816.5
2018-Jul-10 08:01N 34°27' E 135°09'816.8
2018-Jul-10 07:31N 34°32' E 135°18'5 9.6
2018-Jul-10 07:00N 34°32' E 135°24'0 0.2
2018-Jul-10 06:26N 34°32' E 135°24'0 0.0
2018-Jul-10 05:44N 34°32' E 135°24'0 0.0
2018-Jul-10 05:20N 34°32' E 135°24'0 0.0
2018-Jul-10 04:47N 34°32' E 135°24'0 0.0
2018-Jul-10 04:29N 34°32' E 135°24'0 0.0
2018-Jul-10 03:56N 34°32' E 135°24'0 0.0
2018-Jul-10 03:29N 34°32' E 135°24'0 0.0
2018-Jul-10 02:56N 34°32' E 135°24'0 0.0
2018-Jul-10 02:26N 34°32' E 135°24'0 0.0
2018-Jul-10 01:56N 34°32' E 135°24'0 0.0
2018-Jul-10 01:14N 34°32' E 135°24'0 0.0
2018-Jul-10 00:53N 34°32' E 135°24'0 0.0
2018-Jul-10 00:23N 34°32' E 135°24'0 0.0
2018-Jul-09 22:47N 34°32' E 135°24'0 0.2
2018-Jul-09 22:30N 34°32' E 135°24'2 4.3
2018-Jul-09 22:00N 34°33' E 135°22'5 9.2
2018-Jul-09 21:30N 34°31' E 135°17'611.5
2018-Jul-09 21:00N 34°28' E 135°11'815.1
2018-Jul-09 20:30N 34°23' E 135°04'714.9
2018-Jul-09 20:00N 34°17' E 134°59'713.3
2018-Jul-09 19:30N 34°10' E 134°60'612.6
2018-Jul-09 19:00N 34°04' E 134°59'4 8.2
2018-Jul-09 18:30N 33°60' E 134°58'5 9.2
2018-Jul-09 18:00N 33°55' E 134°57'5 9.7
2018-Jul-09 17:30N 33°51' E 134°56'713.2
2018-Jul-09 17:01N 33°45' E 134°51'1115.1
2018-Jul-09 16:17N 33°37' E 134°43'  

Dump ship's entire track history